Navarino, Wisconsin
Current Conditions -  °F | °C
As of 10:15 AM on Friday 21 Nov 2014 (Local Time) from KEZS Reporting Station
Clear Clear  
Wind Chill:   Ceiling: Unl
Heat Index: 19°   Visibility: 10mi
Dew Point:   Wind: 9mph
Humidity: 54%   Direction: 240°WSW
Pressure: 30.34"   Gusts: NA
Location:  44.7353°N, 88.4379°W
Report Text: KEZS 211615Z AUTO 24008KT 10SM CLR M07/M15 A3034 RMK AO2 T10731153
Loading
Personal Weather Stations






























Interactive Weather Map New forecast layout! Learn more

10-Day Weather Forecast

Advertisements
Track Severe Weather on mobile